sensor_id;sensor_type;location;lat;lon;timestamp;pressure;altitude;pressure_sealevel;temperature
16956;BMP180;8594;52.052;8.354;2024-01-11T00:00:02;102085.00;;;-2.60
16956;BMP180;8594;52.052;8.354;2024-01-11T00:02:30;102076.00;;;-2.60
16956;BMP180;8594;52.052;8.354;2024-01-11T00:04:57;102079.00;;;-2.80
16956;BMP180;8594;52.052;8.354;2024-01-11T00:07:24;102080.00;;;-2.80
16956;BMP180;8594;52.052;8.354;2024-01-11T00:09:51;102076.00;;;-2.60
16956;BMP180;8594;52.052;8.354;2024-01-11T00:12:17;102075.00;;;-2.40
16956;BMP180;8594;52.052;8.354;2024-01-11T00:14:44;102077.00;;;-2.20
16956;BMP180;8594;52.052;8.354;2024-01-11T00:17:11;102086.00;;;-1.60
16956;BMP180;8594;52.052;8.354;2024-01-11T00:19:39;102076.00;;;-1.70
16956;BMP180;8594;52.052;8.354;2024-01-11T00:22:05;102081.00;;;-1.20
16956;BMP180;8594;52.052;8.354;2024-01-11T00:24:32;102083.00;;;-1.10
16956;BMP180;8594;52.052;8.354;2024-01-11T00:26:59;102076.00;;;-1.60
16956;BMP180;8594;52.052;8.354;2024-01-11T00:29:26;102076.00;;;-1.90
16956;BMP180;8594;52.052;8.354;2024-01-11T00:31:54;102066.00;;;-1.50
16956;BMP180;8594;52.052;8.354;2024-01-11T00:34:21;102073.00;;;-1.70
16956;BMP180;8594;52.052;8.354;2024-01-11T00:36:49;102063.00;;;-1.40
16956;BMP180;8594;52.052;8.354;2024-01-11T00:39:15;102061.00;;;-0.90
16956;BMP180;8594;52.052;8.354;2024-01-11T00:41:42;102065.00;;;-1.10
16956;BMP180;8594;52.052;8.354;2024-01-11T00:44:09;102065.00;;;-1.10
16956;BMP180;8594;52.052;8.354;2024-01-11T00:46:36;102062.00;;;-1.10
16956;BMP180;8594;52.052;8.354;2024-01-11T00:49:03;102061.00;;;-1.20
16956;BMP180;8594;52.052;8.354;2024-01-11T00:51:30;102055.00;;;-1.20
16956;BMP180;8594;52.052;8.354;2024-01-11T00:53:58;102065.00;;;-1.60
16956;BMP180;8594;52.052;8.354;2024-01-11T00:56:25;102069.00;;;-1.60
16956;BMP180;8594;52.052;8.354;2024-01-11T00:58:52;102061.00;;;-1.30
16956;BMP180;8594;52.052;8.354;2024-01-11T01:01:19;102078.00;;;-1.40
16956;BMP180;8594;52.052;8.354;2024-01-11T01:03:46;102076.00;;;-1.30
16956;BMP180;8594;52.052;8.354;2024-01-11T01:06:13;102077.00;;;-1.20
16956;BMP180;8594;52.052;8.354;2024-01-11T01:08:40;102085.00;;;-1.50
16956;BMP180;8594;52.052;8.354;2024-01-11T01:11:08;102089.00;;;-1.30
16956;BMP180;8594;52.052;8.354;2024-01-11T01:13:34;102096.00;;;-1.10
16956;BMP180;8594;52.052;8.354;2024-01-11T01:16:01;102089.00;;;-1.20
16956;BMP180;8594;52.052;8.354;2024-01-11T01:18:28;102099.00;;;-0.80
16956;BMP180;8594;52.052;8.354;2024-01-11T01:20:55;102097.00;;;-1.40
16956;BMP180;8594;52.052;8.354;2024-01-11T01:23:22;102098.00;;;-1.90
16956;BMP180;8594;52.052;8.354;2024-01-11T01:25:49;102091.00;;;-1.30
16956;BMP180;8594;52.052;8.354;2024-01-11T01:28:17;102083.00;;;-1.00
16956;BMP180;8594;52.052;8.354;2024-01-11T01:30:44;102097.00;;;-1.50
16956;BMP180;8594;52.052;8.354;2024-01-11T01:33:10;102101.00;;;-1.90
16956;BMP180;8594;52.052;8.354;2024-01-11T01:35:37;102104.00;;;-1.50
16956;BMP180;8594;52.052;8.354;2024-01-11T01:38:04;102105.00;;;-1.10
16956;BMP180;8594;52.052;8.354;2024-01-11T01:40:31;102108.00;;;-1.60
16956;BMP180;8594;52.052;8.354;2024-01-11T01:42:59;102108.00;;;-1.20
16956;BMP180;8594;52.052;8.354;2024-01-11T01:45:27;102104.00;;;-1.20
16956;BMP180;8594;52.052;8.354;2024-01-11T01:47:55;102110.00;;;-1.40
16956;BMP180;8594;52.052;8.354;2024-01-11T01:50:23;102119.00;;;-1.40
16956;BMP180;8594;52.052;8.354;2024-01-11T01:52:50;102112.00;;;-1.10
16956;BMP180;8594;52.052;8.354;2024-01-11T01:55:18;102106.00;;;-1.30
16956;BMP180;8594;52.052;8.354;2024-01-11T01:57:47;102109.00;;;-1.30
16956;BMP180;8594;52.052;8.354;2024-01-11T02:00:15;102107.00;;;-0.70
16956;BMP180;8594;52.052;8.354;2024-01-11T02:02:44;102104.00;;;-0.90
16956;BMP180;8594;52.052;8.354;2024-01-11T02:05:14;102104.00;;;-0.80
16956;BMP180;8594;52.052;8.354;2024-01-11T02:07:41;102098.00;;;-0.60
16956;BMP180;8594;52.052;8.354;2024-01-11T02:10:08;102103.00;;;-0.70
16956;BMP180;8594;52.052;8.354;2024-01-11T02:12:35;102108.00;;;-1.00
16956;BMP180;8594;52.052;8.354;2024-01-11T02:15:04;102119.00;;;-1.40
16956;BMP180;8594;52.052;8.354;2024-01-11T02:17:32;102125.00;;;-1.30
16956;BMP180;8594;52.052;8.354;2024-01-11T02:20:01;102110.00;;;-1.50
16956;BMP180;8594;52.052;8.354;2024-01-11T02:22:32;102107.00;;;-1.20
16956;BMP180;8594;52.052;8.354;2024-01-11T02:25:02;102105.00;;;-1.60
16956;BMP180;8594;52.052;8.354;2024-01-11T02:27:29;102092.00;;;-1.60
16956;BMP180;8594;52.052;8.354;2024-01-11T02:29:55;102079.00;;;-1.40
16956;BMP180;8594;52.052;8.354;2024-01-11T02:32:23;102095.00;;;-1.40
16956;BMP180;8594;52.052;8.354;2024-01-11T02:34:50;102089.00;;;-1.20
16956;BMP180;8594;52.052;8.354;2024-01-11T02:37:18;102101.00;;;-1.10
16956;BMP180;8594;52.052;8.354;2024-01-11T02:39:45;102118.00;;;-1.60
16956;BMP180;8594;52.052;8.354;2024-01-11T02:42:13;102095.00;;;-2.00
16956;BMP180;8594;52.052;8.354;2024-01-11T02:44:39;102102.00;;;-1.90
16956;BMP180;8594;52.052;8.354;2024-01-11T02:47:06;102113.00;;;-1.60
16956;BMP180;8594;52.052;8.354;2024-01-11T02:49:33;102106.00;;;-1.90
16956;BMP180;8594;52.052;8.354;2024-01-11T02:51:59;102103.00;;;-2.10
16956;BMP180;8594;52.052;8.354;2024-01-11T02:54:26;102086.00;;;-1.80
16956;BMP180;8594;52.052;8.354;2024-01-11T02:56:53;102096.00;;;-2.10
16956;BMP180;8594;52.052;8.354;2024-01-11T02:59:21;102104.00;;;-1.80
16956;BMP180;8594;52.052;8.354;2024-01-11T03:01:47;102112.00;;;-1.70
16956;BMP180;8594;52.052;8.354;2024-01-11T03:04:14;102107.00;;;-1.60
16956;BMP180;8594;52.052;8.354;2024-01-11T03:06:41;102120.00;;;-1.50
16956;BMP180;8594;52.052;8.354;2024-01-11T03:09:08;102105.00;;;-1.40
16956;BMP180;8594;52.052;8.354;2024-01-11T03:11:34;102096.00;;;-1.50
16956;BMP180;8594;52.052;8.354;2024-01-11T03:14:03;102102.00;;;-1.40
16956;BMP180;8594;52.052;8.354;2024-01-11T03:16:31;102098.00;;;-1.70
16956;BMP180;8594;52.052;8.354;2024-01-11T03:18:57;102098.00;;;-1.50
16956;BMP180;8594;52.052;8.354;2024-01-11T03:21:24;102100.00;;;-1.40
16956;BMP180;8594;52.052;8.354;2024-01-11T03:23:51;102105.00;;;-1.20
16956;BMP180;8594;52.052;8.354;2024-01-11T03:26:18;102099.00;;;-1.30
16956;BMP180;8594;52.052;8.354;2024-01-11T03:28:44;102090.00;;;-1.30
16956;BMP180;8594;52.052;8.354;2024-01-11T03:31:11;102098.00;;;-1.70
16956;BMP180;8594;52.052;8.354;2024-01-11T03:33:39;102109.00;;;-1.60
16956;BMP180;8594;52.052;8.354;2024-01-11T03:36:08;102109.00;;;-1.50
16956;BMP180;8594;52.052;8.354;2024-01-11T03:38:35;102090.00;;;-1.40
16956;BMP180;8594;52.052;8.354;2024-01-11T03:41:01;102096.00;;;-1.30
16956;BMP180;8594;52.052;8.354;2024-01-11T03:43:28;102093.00;;;-1.30
16956;BMP180;8594;52.052;8.354;2024-01-11T03:45:55;102095.00;;;-1.40
16956;BMP180;8594;52.052;8.354;2024-01-11T03:48:22;102095.00;;;-1.40
16956;BMP180;8594;52.052;8.354;2024-01-11T03:50:50;102101.00;;;-1.60
16956;BMP180;8594;52.052;8.354;2024-01-11T03:53:17;102093.00;;;-2.10
16956;BMP180;8594;52.052;8.354;2024-01-11T03:55:44;102106.00;;;-2.00
16956;BMP180;8594;52.052;8.354;2024-01-11T03:58:10;102113.00;;;-1.30
16956;BMP180;8594;52.052;8.354;2024-01-11T04:00:37;102113.00;;;-1.30
16956;BMP180;8594;52.052;8.354;2024-01-11T04:03:06;102125.00;;;-1.30
16956;BMP180;8594;52.052;8.354;2024-01-11T04:05:32;102120.00;;;-1.60
16956;BMP180;8594;52.052;8.354;2024-01-11T04:08:04;102126.00;;;-1.20
16956;BMP180;8594;52.052;8.354;2024-01-11T04:10:31;102120.00;;;-1.60
16956;BMP180;8594;52.052;8.354;2024-01-11T04:12:58;102131.00;;;-1.20
16956;BMP180;8594;52.052;8.354;2024-01-11T04:15:25;102134.00;;;-1.70
16956;BMP180;8594;52.052;8.354;2024-01-11T04:17:52;102129.00;;;-2.10
16956;BMP180;8594;52.052;8.354;2024-01-11T04:20:18;102133.00;;;-2.10
16956;BMP180;8594;52.052;8.354;2024-01-11T04:22:45;102128.00;;;-2.30
16956;BMP180;8594;52.052;8.354;2024-01-11T04:25:13;102139.00;;;-2.30
16956;BMP180;8594;52.052;8.354;2024-01-11T04:27:40;102135.00;;;-2.20
16956;BMP180;8594;52.052;8.354;2024-01-11T04:30:08;102143.00;;;-2.20
16956;BMP180;8594;52.052;8.354;2024-01-11T04:32:35;102147.00;;;-2.30
16956;BMP180;8594;52.052;8.354;2024-01-11T04:35:03;102138.00;;;-2.20
16956;BMP180;8594;52.052;8.354;2024-01-11T04:37:30;102140.00;;;-2.00
16956;BMP180;8594;52.052;8.354;2024-01-11T04:39:57;102129.00;;;-1.90
16956;BMP180;8594;52.052;8.354;2024-01-11T04:42:26;102133.00;;;-1.90
16956;BMP180;8594;52.052;8.354;2024-01-11T04:44:53;102133.00;;;-2.00
16956;BMP180;8594;52.052;8.354;2024-01-11T04:47:20;102152.00;;;-2.00
16956;BMP180;8594;52.052;8.354;2024-01-11T04:49:47;102160.00;;;-1.70
16956;BMP180;8594;52.052;8.354;2024-01-11T04:52:13;102145.00;;;-1.50
16956;BMP180;8594;52.052;8.354;2024-01-11T04:54:40;102145.00;;;-1.50
16956;BMP180;8594;52.052;8.354;2024-01-11T04:57:07;102140.00;;;-1.80
16956;BMP180;8594;52.052;8.354;2024-01-11T04:59:35;102132.00;;;-2.20
16956;BMP180;8594;52.052;8.354;2024-01-11T05:02:02;102134.00;;;-2.30
16956;BMP180;8594;52.052;8.354;2024-01-11T05:04:28;102129.00;;;-2.00
16956;BMP180;8594;52.052;8.354;2024-01-11T05:06:56;102104.00;;;-2.10
16956;BMP180;8594;52.052;8.354;2024-01-11T05:09:22;102098.00;;;-2.10
16956;BMP180;8594;52.052;8.354;2024-01-11T05:11:49;102088.00;;;-2.30
16956;BMP180;8594;52.052;8.354;2024-01-11T05:14:16;102084.00;;;-2.30
16956;BMP180;8594;52.052;8.354;2024-01-11T05:16:44;102089.00;;;-2.00
16956;BMP180;8594;52.052;8.354;2024-01-11T05:19:10;102107.00;;;-1.70
16956;BMP180;8594;52.052;8.354;2024-01-11T05:21:37;102111.00;;;-1.40
16956;BMP180;8594;52.052;8.354;2024-01-11T05:24:04;102115.00;;;-1.80
16956;BMP180;8594;52.052;8.354;2024-01-11T05:26:31;102120.00;;;-2.00
16956;BMP180;8594;52.052;8.354;2024-01-11T05:28:58;102120.00;;;-1.90
16956;BMP180;8594;52.052;8.354;2024-01-11T05:31:25;102128.00;;;-1.60
16956;BMP180;8594;52.052;8.354;2024-01-11T05:33:53;102127.00;;;-1.80
16956;BMP180;8594;52.052;8.354;2024-01-11T05:36:20;102137.00;;;-1.70
16956;BMP180;8594;52.052;8.354;2024-01-11T05:38:47;102127.00;;;-1.50
16956;BMP180;8594;52.052;8.354;2024-01-11T05:41:14;102144.00;;;-1.30
16956;BMP180;8594;52.052;8.354;2024-01-11T05:43:41;102137.00;;;-1.70
16956;BMP180;8594;52.052;8.354;2024-01-11T05:46:08;102142.00;;;-1.40
16956;BMP180;8594;52.052;8.354;2024-01-11T05:48:35;102140.00;;;-1.60
16956;BMP180;8594;52.052;8.354;2024-01-11T05:51:03;102145.00;;;-1.70
16956;BMP180;8594;52.052;8.354;2024-01-11T05:53:30;102153.00;;;-2.00
16956;BMP180;8594;52.052;8.354;2024-01-11T05:56:00;102140.00;;;-2.20
16956;BMP180;8594;52.052;8.354;2024-01-11T05:58:28;102138.00;;;-1.90
16956;BMP180;8594;52.052;8.354;2024-01-11T06:00:55;102154.00;;;-1.80
16956;BMP180;8594;52.052;8.354;2024-01-11T06:03:22;102164.00;;;-2.10
16956;BMP180;8594;52.052;8.354;2024-01-11T06:05:49;102193.00;;;-1.70
16956;BMP180;8594;52.052;8.354;2024-01-11T06:08:17;102200.00;;;-1.30
16956;BMP180;8594;52.052;8.354;2024-01-11T06:10:43;102207.00;;;-1.60
16956;BMP180;8594;52.052;8.354;2024-01-11T06:13:10;102196.00;;;-2.10
16956;BMP180;8594;52.052;8.354;2024-01-11T06:15:37;102207.00;;;-2.00
16956;BMP180;8594;52.052;8.354;2024-01-11T06:18:04;102208.00;;;-1.90
16956;BMP180;8594;52.052;8.354;2024-01-11T06:20:31;102213.00;;;-2.00
16956;BMP180;8594;52.052;8.354;2024-01-11T06:22:58;102200.00;;;-2.10
16956;BMP180;8594;52.052;8.354;2024-01-11T06:25:25;102189.00;;;-2.10
16956;BMP180;8594;52.052;8.354;2024-01-11T06:27:53;102180.00;;;-2.30
16956;BMP180;8594;52.052;8.354;2024-01-11T06:30:20;102183.00;;;-2.00
16956;BMP180;8594;52.052;8.354;2024-01-11T06:32:47;102180.00;;;-2.10
16956;BMP180;8594;52.052;8.354;2024-01-11T06:35:14;102181.00;;;-1.90
16956;BMP180;8594;52.052;8.354;2024-01-11T06:37:41;102172.00;;;-2.50
16956;BMP180;8594;52.052;8.354;2024-01-11T06:40:09;102184.00;;;-2.10
16956;BMP180;8594;52.052;8.354;2024-01-11T06:42:37;102178.00;;;-2.10
16956;BMP180;8594;52.052;8.354;2024-01-11T06:45:05;102154.00;;;-2.20
16956;BMP180;8594;52.052;8.354;2024-01-11T06:47:32;102159.00;;;-2.10
16956;BMP180;8594;52.052;8.354;2024-01-11T06:49:59;102168.00;;;-1.90
16956;BMP180;8594;52.052;8.354;2024-01-11T06:52:26;102166.00;;;-1.90
16956;BMP180;8594;52.052;8.354;2024-01-11T06:54:53;102154.00;;;-1.70
16956;BMP180;8594;52.052;8.354;2024-01-11T06:57:21;102159.00;;;-2.10
16956;BMP180;8594;52.052;8.354;2024-01-11T06:59:49;102159.00;;;-1.70
16956;BMP180;8594;52.052;8.354;2024-01-11T07:02:16;102151.00;;;-1.50
16956;BMP180;8594;52.052;8.354;2024-01-11T07:04:44;102156.00;;;-1.40
16956;BMP180;8594;52.052;8.354;2024-01-11T07:07:11;102151.00;;;-1.50
16956;BMP180;8594;52.052;8.354;2024-01-11T07:09:38;102145.00;;;-1.10
16956;BMP180;8594;52.052;8.354;2024-01-11T07:12:06;102156.00;;;-1.10
16956;BMP180;8594;52.052;8.354;2024-01-11T07:14:33;102158.00;;;-1.00
16956;BMP180;8594;52.052;8.354;2024-01-11T07:17:02;102160.00;;;-1.30
16956;BMP180;8594;52.052;8.354;2024-01-11T07:19:29;102162.00;;;-1.10
16956;BMP180;8594;52.052;8.354;2024-01-11T07:21:56;102150.00;;;-1.60
16956;BMP180;8594;52.052;8.354;2024-01-11T07:24:23;102164.00;;;-1.30
16956;BMP180;8594;52.052;8.354;2024-01-11T07:26:51;102167.00;;;-1.10
16956;BMP180;8594;52.052;8.354;2024-01-11T07:29:18;102188.00;;;-1.20
16956;BMP180;8594;52.052;8.354;2024-01-11T07:31:45;102190.00;;;-1.10
16956;BMP180;8594;52.052;8.354;2024-01-11T07:34:13;102193.00;;;-1.30
16956;BMP180;8594;52.052;8.354;2024-01-11T07:36:40;102185.00;;;-1.60
16956;BMP180;8594;52.052;8.354;2024-01-11T07:39:06;102172.00;;;-1.50
16956;BMP180;8594;52.052;8.354;2024-01-11T07:41:33;102179.00;;;-1.40
16956;BMP180;8594;52.052;8.354;2024-01-11T07:44:00;102178.00;;;-1.40
16956;BMP180;8594;52.052;8.354;2024-01-11T07:46:27;102195.00;;;-1.10
16956;BMP180;8594;52.052;8.354;2024-01-11T07:48:53;102196.00;;;-1.10
16956;BMP180;8594;52.052;8.354;2024-01-11T07:51:21;102203.00;;;-0.90
16956;BMP180;8594;52.052;8.354;2024-01-11T07:53:48;102204.00;;;-0.50
16956;BMP180;8594;52.052;8.354;2024-01-11T07:56:15;102202.00;;;-0.80
16956;BMP180;8594;52.052;8.354;2024-01-11T07:58:42;102202.00;;;-0.70
16956;BMP180;8594;52.052;8.354;2024-01-11T08:01:09;102191.00;;;-1.00
16956;BMP180;8594;52.052;8.354;2024-01-11T08:03:36;102191.00;;;-1.20
16956;BMP180;8594;52.052;8.354;2024-01-11T08:06:04;102201.00;;;-0.70
16956;BMP180;8594;52.052;8.354;2024-01-11T08:08:34;102209.00;;;-0.40
16956;BMP180;8594;52.052;8.354;2024-01-11T08:11:02;102204.00;;;-1.00
16956;BMP180;8594;52.052;8.354;2024-01-11T08:13:29;102196.00;;;-1.00
16956;BMP180;8594;52.052;8.354;2024-01-11T08:15:57;102201.00;;;-0.80
16956;BMP180;8594;52.052;8.354;2024-01-11T08:18:24;102198.00;;;-0.30
16956;BMP180;8594;52.052;8.354;2024-01-11T08:20:52;102200.00;;;0.40
16956;BMP180;8594;52.052;8.354;2024-01-11T08:23:19;102201.00;;;0.80
16956;BMP180;8594;52.052;8.354;2024-01-11T08:25:47;102202.00;;;1.20
16956;BMP180;8594;52.052;8.354;2024-01-11T08:28:14;102204.00;;;1.70
16956;BMP180;8594;52.052;8.354;2024-01-11T08:30:41;102225.00;;;1.40
16956;BMP180;8594;52.052;8.354;2024-01-11T08:33:08;102221.00;;;1.20
16956;BMP180;8594;52.052;8.354;2024-01-11T08:35:35;102224.00;;;0.80
16956;BMP180;8594;52.052;8.354;2024-01-11T08:38:02;102247.00;;;1.40
16956;BMP180;8594;52.052;8.354;2024-01-11T08:40:29;102244.00;;;1.10
16956;BMP180;8594;52.052;8.354;2024-01-11T08:42:57;102246.00;;;1.60
16956;BMP180;8594;52.052;8.354;2024-01-11T08:45:25;102245.00;;;1.20
16956;BMP180;8594;52.052;8.354;2024-01-11T08:47:51;102241.00;;;0.60
16956;BMP180;8594;52.052;8.354;2024-01-11T08:50:18;102243.00;;;0.60
16956;BMP180;8594;52.052;8.354;2024-01-11T08:52:47;102262.00;;;1.80
16956;BMP180;8594;52.052;8.354;2024-01-11T08:55:14;102259.00;;;1.10
16956;BMP180;8594;52.052;8.354;2024-01-11T08:57:40;102257.00;;;1.20
16956;BMP180;8594;52.052;8.354;2024-01-11T09:00:10;102263.00;;;1.50
16956;BMP180;8594;52.052;8.354;2024-01-11T09:02:37;102263.00;;;2.10
16956;BMP180;8594;52.052;8.354;2024-01-11T09:05:05;102272.00;;;2.80
16956;BMP180;8594;52.052;8.354;2024-01-11T09:07:32;102273.00;;;2.70
16956;BMP180;8594;52.052;8.354;2024-01-11T09:09:59;102268.00;;;3.10
16956;BMP180;8594;52.052;8.354;2024-01-11T09:12:26;102254.00;;;2.70
16956;BMP180;8594;52.052;8.354;2024-01-11T09:14:53;102239.00;;;2.90
16956;BMP180;8594;52.052;8.354;2024-01-11T09:17:21;102238.00;;;2.90
16956;BMP180;8594;52.052;8.354;2024-01-11T09:19:48;102237.00;;;4.30
16956;BMP180;8594;52.052;8.354;2024-01-11T09:22:15;102238.00;;;3.80
16956;BMP180;8594;52.052;8.354;2024-01-11T09:24:41;102232.00;;;4.60
16956;BMP180;8594;52.052;8.354;2024-01-11T09:27:08;102210.00;;;3.90
16956;BMP180;8594;52.052;8.354;2024-01-11T09:29:35;102207.00;;;3.10
16956;BMP180;8594;52.052;8.354;2024-01-11T09:32:02;102200.00;;;3.90
16956;BMP180;8594;52.052;8.354;2024-01-11T09:34:31;102212.00;;;4.60
16956;BMP180;8594;52.052;8.354;2024-01-11T09:36:57;102231.00;;;5.00
16956;BMP180;8594;52.052;8.354;2024-01-11T09:39:24;102234.00;;;5.20
16956;BMP180;8594;52.052;8.354;2024-01-11T09:41:59;102248.00;;;5.00
16956;BMP180;8594;52.052;8.354;2024-01-11T09:44:29;102237.00;;;5.50
16956;BMP180;8594;52.052;8.354;2024-01-11T09:46:58;102237.00;;;5.40
16956;BMP180;8594;52.052;8.354;2024-01-11T09:49:30;102237.00;;;4.70
16956;BMP180;8594;52.052;8.354;2024-01-11T09:51:57;102248.00;;;5.70
16956;BMP180;8594;52.052;8.354;2024-01-11T09:54:26;102255.00;;;5.60
16956;BMP180;8594;52.052;8.354;2024-01-11T09:56:54;102259.00;;;6.30
16956;BMP180;8594;52.052;8.354;2024-01-11T09:59:21;102277.00;;;6.00
16956;BMP180;8594;52.052;8.354;2024-01-11T10:01:51;102273.00;;;5.80
16956;BMP180;8594;52.052;8.354;2024-01-11T10:04:18;102274.00;;;5.60
16956;BMP180;8594;52.052;8.354;2024-01-11T10:06:46;102280.00;;;5.90
16956;BMP180;8594;52.052;8.354;2024-01-11T10:09:14;102281.00;;;5.20
16956;BMP180;8594;52.052;8.354;2024-01-11T10:11:41;102270.00;;;5.00
16956;BMP180;8594;52.052;8.354;2024-01-11T10:14:12;102262.00;;;4.70
16956;BMP180;8594;52.052;8.354;2024-01-11T10:16:38;102268.00;;;4.70
16956;BMP180;8594;52.052;8.354;2024-01-11T10:19:05;102267.00;;;5.10
16956;BMP180;8594;52.052;8.354;2024-01-11T10:21:33;102280.00;;;4.60
16956;BMP180;8594;52.052;8.354;2024-01-11T10:24:01;102272.00;;;4.20
16956;BMP180;8594;52.052;8.354;2024-01-11T10:26:30;102263.00;;;4.40
16956;BMP180;8594;52.052;8.354;2024-01-11T10:28:59;102268.00;;;4.30
16956;BMP180;8594;52.052;8.354;2024-01-11T10:31:29;102259.00;;;4.30
16956;BMP180;8594;52.052;8.354;2024-01-11T10:33:55;102268.00;;;4.60
16956;BMP180;8594;52.052;8.354;2024-01-11T10:36:23;102263.00;;;4.00
16956;BMP180;8594;52.052;8.354;2024-01-11T10:38:51;102261.00;;;4.10
16956;BMP180;8594;52.052;8.354;2024-01-11T10:41:21;102248.00;;;3.40
16956;BMP180;8594;52.052;8.354;2024-01-11T10:43:48;102245.00;;;4.00
16956;BMP180;8594;52.052;8.354;2024-01-11T10:46:20;102243.00;;;4.30
16956;BMP180;8594;52.052;8.354;2024-01-11T10:48:55;102249.00;;;4.30
16956;BMP180;8594;52.052;8.354;2024-01-11T10:51:25;102253.00;;;4.20
16956;BMP180;8594;52.052;8.354;2024-01-11T10:53:55;102252.00;;;4.20
16956;BMP180;8594;52.052;8.354;2024-01-11T10:56:23;102254.00;;;4.20
16956;BMP180;8594;52.052;8.354;2024-01-11T10:58:54;102254.00;;;4.50
16956;BMP180;8594;52.052;8.354;2024-01-11T11:01:23;102259.00;;;4.50
16956;BMP180;8594;52.052;8.354;2024-01-11T11:03:52;102246.00;;;4.30
16956;BMP180;8594;52.052;8.354;2024-01-11T11:06:23;102246.00;;;4.00
16956;BMP180;8594;52.052;8.354;2024-01-11T11:08:51;102248.00;;;4.20
16956;BMP180;8594;52.052;8.354;2024-01-11T11:11:20;102247.00;;;3.70
16956;BMP180;8594;52.052;8.354;2024-01-11T11:13:50;102252.00;;;3.90
16956;BMP180;8594;52.052;8.354;2024-01-11T11:16:18;102245.00;;;3.90
16956;BMP180;8594;52.052;8.354;2024-01-11T11:18:45;102253.00;;;4.10
16956;BMP180;8594;52.052;8.354;2024-01-11T11:21:12;102250.00;;;4.00
16956;BMP180;8594;52.052;8.354;2024-01-11T11:23:39;102248.00;;;4.10
16956;BMP180;8594;52.052;8.354;2024-01-11T11:26:06;102245.00;;;4.20
16956;BMP180;8594;52.052;8.354;2024-01-11T11:28:34;102238.00;;;4.20
16956;BMP180;8594;52.052;8.354;2024-01-11T11:31:03;102251.00;;;4.00
16956;BMP180;8594;52.052;8.354;2024-01-11T11:33:30;102247.00;;;4.10
16956;BMP180;8594;52.052;8.354;2024-01-11T11:35:58;102243.00;;;3.70
16956;BMP180;8594;52.052;8.354;2024-01-11T11:38:27;102245.00;;;3.70
16956;BMP180;8594;52.052;8.354;2024-01-11T11:40:57;102246.00;;;3.90
16956;BMP180;8594;52.052;8.354;2024-01-11T11:43:27;102249.00;;;4.00
16956;BMP180;8594;52.052;8.354;2024-01-11T11:45:54;102248.00;;;3.80
16956;BMP180;8594;52.052;8.354;2024-01-11T11:48:50;102247.00;;;3.90
16956;BMP180;8594;52.052;8.354;2024-01-11T11:51:22;102245.00;;;3.70
16956;BMP180;8594;52.052;8.354;2024-01-11T11:53:50;102249.00;;;4.00
16956;BMP180;8594;52.052;8.354;2024-01-11T11:56:19;102239.00;;;3.80
16956;BMP180;8594;52.052;8.354;2024-01-11T11:58:47;102239.00;;;4.20
16956;BMP180;8594;52.052;8.354;2024-01-11T12:01:16;102243.00;;;4.10
16956;BMP180;8594;52.052;8.354;2024-01-11T12:03:44;102238.00;;;3.90
16956;BMP180;8594;52.052;8.354;2024-01-11T12:06:17;102223.00;;;3.90
16956;BMP180;8594;52.052;8.354;2024-01-11T12:08:45;102229.00;;;4.30
16956;BMP180;8594;52.052;8.354;2024-01-11T12:11:18;102234.00;;;4.70
16956;BMP180;8594;52.052;8.354;2024-01-11T12:13:46;102239.00;;;4.60
16956;BMP180;8594;52.052;8.354;2024-01-11T12:16:13;102237.00;;;4.50
16956;BMP180;8594;52.052;8.354;2024-01-11T12:18:40;102226.00;;;4.10
16956;BMP180;8594;52.052;8.354;2024-01-11T12:21:08;102225.00;;;4.40
16956;BMP180;8594;52.052;8.354;2024-01-11T12:23:38;102228.00;;;4.50
16956;BMP180;8594;52.052;8.354;2024-01-11T12:26:07;102231.00;;;4.30
16956;BMP180;8594;52.052;8.354;2024-01-11T12:28:39;102233.00;;;4.80
16956;BMP180;8594;52.052;8.354;2024-01-11T12:31:06;102224.00;;;4.60
16956;BMP180;8594;52.052;8.354;2024-01-11T12:33:33;102224.00;;;4.90
16956;BMP180;8594;52.052;8.354;2024-01-11T12:36:05;102229.00;;;4.70
16956;BMP180;8594;52.052;8.354;2024-01-11T12:38:35;102221.00;;;4.40
16956;BMP180;8594;52.052;8.354;2024-01-11T12:41:02;102207.00;;;4.70
16956;BMP180;8594;52.052;8.354;2024-01-11T12:43:29;102204.00;;;4.50
16956;BMP180;8594;52.052;8.354;2024-01-11T12:45:56;102208.00;;;4.50
16956;BMP180;8594;52.052;8.354;2024-01-11T12:48:23;102203.00;;;4.80
16956;BMP180;8594;52.052;8.354;2024-01-11T12:50:51;102201.00;;;4.60
16956;BMP180;8594;52.052;8.354;2024-01-11T12:53:19;102198.00;;;4.90
16956;BMP180;8594;52.052;8.354;2024-01-11T12:56:01;102196.00;;;4.90
16956;BMP180;8594;52.052;8.354;2024-01-11T12:58:29;102189.00;;;5.10
16956;BMP180;8594;52.052;8.354;2024-01-11T13:00:55;102181.00;;;4.90
16956;BMP180;8594;52.052;8.354;2024-01-11T13:03:25;102182.00;;;5.00
16956;BMP180;8594;52.052;8.354;2024-01-11T13:05:53;102182.00;;;4.70
16956;BMP180;8594;52.052;8.354;2024-01-11T13:08:19;102191.00;;;5.00
16956;BMP180;8594;52.052;8.354;2024-01-11T13:10:47;102180.00;;;4.50
16956;BMP180;8594;52.052;8.354;2024-01-11T13:13:14;102191.00;;;4.70
16956;BMP180;8594;52.052;8.354;2024-01-11T13:15:41;102195.00;;;4.40
16956;BMP180;8594;52.052;8.354;2024-01-11T13:18:08;102184.00;;;4.40
16956;BMP180;8594;52.052;8.354;2024-01-11T13:20:34;102182.00;;;4.60
16956;BMP180;8594;52.052;8.354;2024-01-11T13:23:16;102187.00;;;4.40
16956;BMP180;8594;52.052;8.354;2024-01-11T13:25:47;102173.00;;;4.40
16956;BMP180;8594;52.052;8.354;2024-01-11T13:28:15;102173.00;;;4.40
16956;BMP180;8594;52.052;8.354;2024-01-11T13:30:43;102169.00;;;4.30
16956;BMP180;8594;52.052;8.354;2024-01-11T13:33:11;102174.00;;;4.20
16956;BMP180;8594;52.052;8.354;2024-01-11T13:35:40;102172.00;;;4.10
16956;BMP180;8594;52.052;8.354;2024-01-11T13:38:08;102174.00;;;4.60
16956;BMP180;8594;52.052;8.354;2024-01-11T13:40:36;102177.00;;;4.30
16956;BMP180;8594;52.052;8.354;2024-01-11T13:43:05;102176.00;;;4.50
16956;BMP180;8594;52.052;8.354;2024-01-11T13:45:32;102172.00;;;4.40
16956;BMP180;8594;52.052;8.354;2024-01-11T13:48:03;102171.00;;;4.30
16956;BMP180;8594;52.052;8.354;2024-01-11T13:50:30;102180.00;;;4.50
16956;BMP180;8594;52.052;8.354;2024-01-11T13:52:56;102183.00;;;4.50
16956;BMP180;8594;52.052;8.354;2024-01-11T13:55:23;102178.00;;;4.40
16956;BMP180;8594;52.052;8.354;2024-01-11T13:57:51;102183.00;;;4.30
16956;BMP180;8594;52.052;8.354;2024-01-11T14:00:20;102179.00;;;4.50
16956;BMP180;8594;52.052;8.354;2024-01-11T14:02:47;102177.00;;;4.60
16956;BMP180;8594;52.052;8.354;2024-01-11T14:05:15;102183.00;;;4.60
16956;BMP180;8594;52.052;8.354;2024-01-11T14:07:44;102171.00;;;4.50
16956;BMP180;8594;52.052;8.354;2024-01-11T14:10:12;102166.00;;;4.70
16956;BMP180;8594;52.052;8.354;2024-01-11T14:12:39;102178.00;;;4.70
16956;BMP180;8594;52.052;8.354;2024-01-11T14:15:09;102161.00;;;4.70